createdAt,value
2023-01-27T00:01:09.656Z,16.20
2023-01-27T00:03:37.875Z,16.20
2023-01-27T00:06:06.668Z,16.20
2023-01-27T00:08:35.009Z,16.20
2023-01-27T00:11:20.953Z,16.20
2023-01-27T00:13:50.526Z,16.20
2023-01-27T00:16:18.869Z,16.20
2023-01-27T00:18:47.089Z,16.20
2023-01-27T00:21:33.017Z,16.20
2023-01-27T00:24:18.715Z,16.20
2023-01-27T00:26:47.007Z,16.10
2023-01-27T00:29:16.617Z,16.20
2023-01-27T00:32:02.502Z,16.20
2023-01-27T00:34:30.740Z,16.20
2023-01-27T00:36:58.965Z,16.20
2023-01-27T00:39:27.219Z,16.20
2023-01-27T00:41:55.996Z,16.20
2023-01-27T00:44:25.697Z,16.10
2023-01-27T00:46:53.838Z,16.10
2023-01-27T00:49:22.088Z,16.10
2023-01-27T00:51:50.504Z,16.10
2023-01-27T00:54:18.839Z,16.10
2023-01-27T00:56:47.020Z,16.10
2023-01-27T00:59:15.237Z,16.10
2023-01-27T01:01:44.876Z,16.10
2023-01-27T01:04:13.206Z,16.10
2023-01-27T01:06:41.524Z,16.10
2023-01-27T01:09:09.768Z,16.10
2023-01-27T01:11:38.038Z,16.10
2023-01-27T01:14:06.365Z,16.10
2023-01-27T01:16:34.577Z,16.10
2023-01-27T01:19:04.160Z,16.10
2023-01-27T01:21:32.352Z,16.10
2023-01-27T01:24:00.636Z,16.10
2023-01-27T01:26:28.840Z,16.10
2023-01-27T01:28:57.015Z,16.00
2023-01-27T01:31:25.274Z,16.00
2023-01-27T01:33:53.478Z,16.00
2023-01-27T01:36:23.119Z,16.10
2023-01-27T01:38:55.494Z,16.00
2023-01-27T01:41:24.833Z,16.10
2023-01-27T01:43:53.717Z,16.00
2023-01-27T01:46:22.291Z,16.00
2023-01-27T01:48:55.069Z,16.00
2023-01-27T01:51:29.560Z,16.10
2023-01-27T01:54:02.105Z,16.00
2023-01-27T01:56:35.603Z,16.00
2023-01-27T01:59:07.474Z,16.00
2023-01-27T02:01:35.849Z,16.00
2023-01-27T02:04:08.877Z,16.00
2023-01-27T02:06:43.819Z,16.00
2023-01-27T02:09:12.799Z,16.00
2023-01-27T02:11:41.025Z,16.00
2023-01-27T02:14:09.339Z,16.00
2023-01-27T02:16:38.445Z,16.00
2023-01-27T02:19:08.942Z,16.00
2023-01-27T02:21:38.574Z,16.00
2023-01-27T02:24:12.323Z,16.00
2023-01-27T02:26:45.216Z,16.00
2023-01-27T02:29:15.968Z,16.00
2023-01-27T02:31:44.532Z,16.00
2023-01-27T02:34:15.965Z,16.00
2023-01-27T02:36:48.931Z,16.00
2023-01-27T02:39:19.616Z,16.00
2023-01-27T02:41:52.667Z,15.90
2023-01-27T02:44:21.164Z,15.90
2023-01-27T02:46:49.467Z,15.90
2023-01-27T02:49:17.754Z,16.00
2023-01-27T02:51:46.003Z,15.90
2023-01-27T02:54:14.351Z,15.90
2023-01-27T02:56:42.569Z,15.90
2023-01-27T02:59:12.191Z,15.90
2023-01-27T03:01:40.539Z,15.90
2023-01-27T03:04:11.892Z,15.90
2023-01-27T03:06:40.340Z,15.90
2023-01-27T03:09:08.737Z,15.90
2023-01-27T03:11:53.977Z,15.90
2023-01-27T03:14:37.705Z,15.90
2023-01-27T03:17:23.190Z,15.90
2023-01-27T03:19:53.420Z,15.90
2023-01-27T03:22:21.581Z,15.90
2023-01-27T03:24:49.831Z,15.90
2023-01-27T03:27:18.009Z,15.90
2023-01-27T03:29:56.516Z,15.90
2023-01-27T03:32:25.073Z,15.90
2023-01-27T03:34:53.330Z,15.90
2023-01-27T03:37:39.015Z,15.90
2023-01-27T03:40:26.383Z,15.90
2023-01-27T03:43:12.207Z,15.90
2023-01-27T03:46:03.301Z,15.90
2023-01-27T03:48:32.204Z,15.90
2023-01-27T03:51:00.820Z,15.80
2023-01-27T03:53:29.136Z,15.80
2023-01-27T03:55:57.645Z,15.80
2023-01-27T03:58:28.494Z,15.80
2023-01-27T04:00:59.482Z,15.80
2023-01-27T04:03:49.143Z,15.80
2023-01-27T04:06:36.918Z,15.80
2023-01-27T04:09:06.366Z,15.80
2023-01-27T04:11:52.850Z,15.80
2023-01-27T04:14:21.398Z,15.80
2023-01-27T04:16:52.482Z,15.80
2023-01-27T04:19:20.901Z,15.80
2023-01-27T04:21:49.522Z,15.80
2023-01-27T04:24:22.582Z,15.80
2023-01-27T04:26:54.827Z,15.80
2023-01-27T04:29:24.006Z,15.80
2023-01-27T04:31:53.739Z,15.80
2023-01-27T04:34:22.490Z,15.80
2023-01-27T04:36:50.686Z,15.80
2023-01-27T04:39:19.397Z,15.90
2023-01-27T04:41:49.158Z,15.90
2023-01-27T04:44:17.493Z,15.90
2023-01-27T04:46:45.669Z,15.90
2023-01-27T04:49:15.253Z,15.90
2023-01-27T04:51:43.578Z,15.90
2023-01-27T04:54:11.861Z,15.90
2023-01-27T04:56:42.552Z,16.00
2023-01-27T04:59:15.563Z,16.00
2023-01-27T05:01:43.818Z,16.00
2023-01-27T05:04:12.118Z,16.00
2023-01-27T05:06:41.709Z,16.00
2023-01-27T05:09:09.990Z,16.00
2023-01-27T05:11:38.156Z,16.00
2023-01-27T05:14:06.403Z,16.10
2023-01-27T05:16:34.783Z,16.10
2023-01-27T05:19:03.337Z,16.10
2023-01-27T05:21:31.986Z,16.10
2023-01-27T05:24:02.793Z,16.10
2023-01-27T05:26:31.021Z,16.20
2023-01-27T05:28:59.953Z,16.20
2023-01-27T05:31:30.198Z,16.20
2023-01-27T05:34:01.310Z,16.20
2023-01-27T05:36:30.797Z,16.20
2023-01-27T05:39:01.278Z,16.20
2023-01-27T05:41:31.843Z,16.30
2023-01-27T05:44:00.290Z,16.30
2023-01-27T05:46:30.370Z,16.30
2023-01-27T05:49:01.621Z,16.30
2023-01-27T05:51:30.791Z,16.30
2023-01-27T05:53:59.175Z,16.30
2023-01-27T05:56:28.999Z,16.30
2023-01-27T05:58:58.301Z,16.30
2023-01-27T06:01:28.391Z,16.30
2023-01-27T06:03:56.910Z,16.30
2023-01-27T06:06:26.896Z,16.30
2023-01-27T06:08:55.642Z,16.30
2023-01-27T06:11:24.951Z,16.30
2023-01-27T06:13:55.620Z,16.30
2023-01-27T06:16:24.672Z,16.30
2023-01-27T06:18:53.215Z,16.40
2023-01-27T06:21:21.791Z,16.30
2023-01-27T06:23:50.481Z,16.30
2023-01-27T06:26:20.520Z,16.30
2023-01-27T06:28:48.878Z,16.30
2023-01-27T06:31:20.951Z,16.30
2023-01-27T06:33:49.830Z,16.30
2023-01-27T06:36:19.877Z,16.30
2023-01-27T06:38:48.952Z,16.30
2023-01-27T06:41:17.459Z,16.30
2023-01-27T06:43:45.620Z,16.30
2023-01-27T06:46:15.112Z,16.30
2023-01-27T06:48:44.783Z,16.30
2023-01-27T06:51:13.429Z,16.30
2023-01-27T06:53:41.932Z,16.30
2023-01-27T06:56:10.298Z,16.30
2023-01-27T06:58:38.640Z,16.30
2023-01-27T07:01:07.465Z,16.40
2023-01-27T07:03:35.803Z,16.40
2023-01-27T07:06:05.731Z,16.40
2023-01-27T07:08:33.887Z,16.40
2023-01-27T07:11:04.534Z,16.40
2023-01-27T07:13:32.792Z,16.40
2023-01-27T07:16:01.501Z,16.40
2023-01-27T07:18:29.846Z,16.40
2023-01-27T07:20:57.967Z,16.40
2023-01-27T07:23:27.566Z,16.40
2023-01-27T07:25:55.678Z,16.40
2023-01-27T07:28:24.060Z,16.40
2023-01-27T07:30:52.389Z,16.40
2023-01-27T07:33:20.550Z,16.40
2023-01-27T07:35:50.769Z,16.40
2023-01-27T07:38:19.400Z,16.30
2023-01-27T07:40:49.344Z,16.40
2023-01-27T07:43:17.515Z,16.40
2023-01-27T07:45:48.910Z,16.40
2023-01-27T07:48:17.610Z,16.40
2023-01-27T07:50:46.027Z,16.40
2023-01-27T07:53:14.274Z,16.40
2023-01-27T07:55:42.851Z,16.50
2023-01-27T07:58:12.514Z,16.50
2023-01-27T08:00:40.833Z,16.60
2023-01-27T08:03:09.355Z,16.60
2023-01-27T08:05:38.495Z,16.60
2023-01-27T08:08:07.121Z,16.60
2023-01-27T08:10:35.406Z,16.70
2023-01-27T08:13:03.861Z,16.70
2023-01-27T08:15:33.796Z,16.80
2023-01-27T08:18:02.457Z,16.80
2023-01-27T08:20:32.457Z,16.90
2023-01-27T08:23:01.055Z,16.90
2023-01-27T08:25:29.486Z,16.90
2023-01-27T08:27:58.144Z,17.00
2023-01-27T08:30:26.930Z,17.00
2023-01-27T08:32:56.686Z,17.00
2023-01-27T08:35:24.940Z,17.10
2023-01-27T08:37:53.192Z,17.00
2023-01-27T08:40:21.546Z,17.10
2023-01-27T08:42:52.313Z,17.10
2023-01-27T08:45:20.956Z,17.20
2023-01-27T08:47:49.500Z,17.10
2023-01-27T08:50:19.378Z,17.20
2023-01-27T08:52:48.065Z,17.20
2023-01-27T08:55:16.669Z,17.20
2023-01-27T08:57:44.976Z,17.20
2023-01-27T09:00:14.760Z,17.20
2023-01-27T09:02:46.477Z,17.30
2023-01-27T09:05:15.272Z,17.30
2023-01-27T09:07:46.381Z,17.30
2023-01-27T09:10:16.193Z,17.30
2023-01-27T09:12:45.463Z,17.30
2023-01-27T09:15:14.685Z,17.40
2023-01-27T09:17:43.482Z,17.30
2023-01-27T09:20:13.444Z,17.40
2023-01-27T09:22:42.799Z,17.40
2023-01-27T09:25:16.124Z,17.40
2023-01-27T09:27:44.376Z,17.40
2023-01-27T09:30:14.840Z,17.40
2023-01-27T09:32:43.814Z,17.40
2023-01-27T09:35:12.464Z,17.40
2023-01-27T09:37:47.291Z,17.50
2023-01-27T09:40:30.930Z,17.50
2023-01-27T09:43:16.753Z,17.50
2023-01-27T09:46:01.894Z,17.50
2023-01-27T09:48:43.626Z,17.50
2023-01-27T09:51:21.874Z,17.60
2023-01-27T09:54:08.344Z,17.60
2023-01-27T09:56:53.411Z,17.60
2023-01-27T09:59:48.015Z,17.60
2023-01-27T10:02:28.940Z,17.60
2023-01-27T10:05:33.357Z,17.60
2023-01-27T10:08:37.372Z,17.70
2023-01-27T10:11:16.943Z,17.60
2023-01-27T10:13:57.524Z,17.70
2023-01-27T10:16:44.321Z,17.70
2023-01-27T10:19:28.379Z,17.70
2023-01-27T10:22:09.443Z,17.70
2023-01-27T10:24:51.385Z,17.70
2023-01-27T10:27:24.355Z,17.70
2023-01-27T10:29:59.393Z,17.70
2023-01-27T10:32:29.093Z,17.70
2023-01-27T10:35:10.516Z,17.80
2023-01-27T10:37:48.849Z,17.80
2023-01-27T10:40:24.343Z,17.80
2023-01-27T10:43:02.710Z,17.90
2023-01-27T10:45:39.876Z,17.90
2023-01-27T10:48:27.972Z,17.90
2023-01-27T10:51:01.785Z,17.90
2023-01-27T10:53:38.224Z,17.90
2023-01-27T10:56:12.333Z,17.90
2023-01-27T10:58:55.603Z,17.90
2023-01-27T11:01:30.991Z,17.90
2023-01-27T11:04:02.987Z,17.90
2023-01-27T11:06:35.087Z,17.90
2023-01-27T11:09:09.990Z,18.00
2023-01-27T11:11:49.469Z,18.00
2023-01-27T11:14:29.053Z,18.00
2023-01-27T11:17:05.236Z,18.00
2023-01-27T11:19:45.118Z,18.00
2023-01-27T11:22:21.372Z,18.00
2023-01-27T11:24:54.550Z,18.00
2023-01-27T11:27:37.526Z,18.10
2023-01-27T11:30:14.896Z,18.10
2023-01-27T11:32:53.874Z,18.10
2023-01-27T11:35:24.108Z,18.10
2023-01-27T11:37:58.279Z,18.10
2023-01-27T11:40:34.708Z,18.10
2023-01-27T11:43:04.985Z,18.10
2023-01-27T11:45:37.461Z,18.10
2023-01-27T11:48:14.003Z,18.10
2023-01-27T11:50:44.110Z,18.10
2023-01-27T11:53:19.446Z,18.10
2023-01-27T11:55:51.939Z,18.10
2023-01-27T11:58:26.029Z,18.20
2023-01-27T12:00:58.801Z,18.10
2023-01-27T12:03:44.572Z,18.20
2023-01-27T12:06:17.257Z,18.20
2023-01-27T12:08:46.968Z,18.20
2023-01-27T12:11:20.947Z,18.20
2023-01-27T12:13:54.959Z,18.10
2023-01-27T12:16:26.312Z,18.20
2023-01-27T12:19:00.756Z,18.20
2023-01-27T12:21:45.209Z,18.10
2023-01-27T12:24:29.093Z,18.10
2023-01-27T12:26:59.084Z,18.10
2023-01-27T12:29:32.109Z,18.10
2023-01-27T12:32:01.873Z,18.10
2023-01-27T12:34:36.158Z,18.10
2023-01-27T12:37:07.751Z,18.10
2023-01-27T12:39:43.277Z,18.10
2023-01-27T12:42:41.069Z,18.10
2023-01-27T12:45:27.415Z,18.10
2023-01-27T12:48:15.919Z,18.10
2023-01-27T12:50:56.249Z,18.10
2023-01-27T12:53:27.767Z,18.10
2023-01-27T12:56:00.805Z,18.10
2023-01-27T12:58:40.945Z,18.10
2023-01-27T13:01:24.517Z,18.10
2023-01-27T13:03:57.538Z,18.10
2023-01-27T13:06:39.465Z,18.10
2023-01-27T13:09:16.948Z,18.10
2023-01-27T13:11:46.661Z,18.10
2023-01-27T13:14:19.428Z,18.10
2023-01-27T13:16:53.244Z,18.10
2023-01-27T13:19:21.794Z,18.10
2023-01-27T13:21:55.104Z,18.10
2023-01-27T13:24:33.548Z,18.10
2023-01-27T13:27:05.007Z,18.10
2023-01-27T13:29:36.341Z,18.10
2023-01-27T13:32:10.576Z,18.10
2023-01-27T13:34:42.789Z,18.20
2023-01-27T13:37:19.474Z,18.10
2023-01-27T13:40:00.807Z,18.20
2023-01-27T13:42:37.472Z,18.20
2023-01-27T13:45:13.233Z,18.20
2023-01-27T13:47:50.225Z,18.20
2023-01-27T13:50:25.619Z,18.10
2023-01-27T13:52:58.492Z,18.20
2023-01-27T13:55:50.720Z,18.20
2023-01-27T13:58:26.692Z,18.20
2023-01-27T14:01:02.725Z,18.20
2023-01-27T14:03:43.598Z,18.20
2023-01-27T14:06:24.230Z,18.20
2023-01-27T14:09:08.607Z,18.20
2023-01-27T14:11:42.025Z,18.20
2023-01-27T14:14:27.476Z,18.20
2023-01-27T14:17:26.560Z,18.20
2023-01-27T14:20:08.984Z,18.10
2023-01-27T14:22:45.864Z,18.20
2023-01-27T14:25:26.502Z,18.20
2023-01-27T14:28:01.120Z,18.20
2023-01-27T14:30:36.486Z,18.20
2023-01-27T14:33:13.535Z,18.20
2023-01-27T14:35:47.274Z,18.20
2023-01-27T14:38:23.778Z,18.30
2023-01-27T14:41:08.112Z,18.30
2023-01-27T14:43:47.268Z,18.30
2023-01-27T14:46:26.546Z,18.30
2023-01-27T14:49:06.449Z,18.30
2023-01-27T14:51:41.314Z,18.30
2023-01-27T14:54:39.134Z,18.30
2023-01-27T14:57:27.875Z,18.30
2023-01-27T15:00:06.560Z,18.30
2023-01-27T15:02:45.262Z,18.40
2023-01-27T15:05:22.029Z,18.40
2023-01-27T15:07:58.869Z,18.40
2023-01-27T15:10:28.692Z,18.40
2023-01-27T15:13:24.147Z,18.40
2023-01-27T15:16:06.396Z,18.40
2023-01-27T15:18:52.205Z,18.40
2023-01-27T15:21:43.164Z,18.50
2023-01-27T15:24:23.748Z,18.50
2023-01-27T15:26:52.599Z,18.50
2023-01-27T15:29:27.142Z,18.50
2023-01-27T15:32:14.141Z,18.50
2023-01-27T15:34:44.443Z,18.50
2023-01-27T15:37:21.807Z,18.50
2023-01-27T15:40:07.814Z,18.40
2023-01-27T15:42:52.524Z,18.40
2023-01-27T15:45:30.796Z,18.40
2023-01-27T15:48:01.504Z,18.40
2023-01-27T15:50:33.148Z,18.30
2023-01-27T15:53:03.946Z,18.30
2023-01-27T15:55:34.426Z,18.30
2023-01-27T15:58:24.022Z,18.30
2023-01-27T16:00:56.491Z,18.30
2023-01-27T16:03:29.236Z,18.30
2023-01-27T16:06:03.453Z,18.30
2023-01-27T16:08:38.625Z,18.20
2023-01-27T16:11:40.651Z,18.20
2023-01-27T16:14:41.869Z,18.20
2023-01-27T16:17:34.437Z,18.20
2023-01-27T16:20:20.913Z,18.10
2023-01-27T16:22:54.148Z,18.10
2023-01-27T16:25:28.313Z,18.10
2023-01-27T16:28:01.757Z,18.10
2023-01-27T16:30:33.248Z,18.10
2023-01-27T16:33:08.547Z,18.00
2023-01-27T16:35:45.137Z,18.00
2023-01-27T16:38:25.595Z,18.00
2023-01-27T16:40:57.093Z,18.00
2023-01-27T16:43:31.611Z,18.00
2023-01-27T16:46:02.754Z,18.00
2023-01-27T16:48:38.794Z,18.00
2023-01-27T16:51:13.210Z,18.00
2023-01-27T16:53:46.902Z,17.90
2023-01-27T16:56:22.692Z,17.90
2023-01-27T16:58:51.526Z,17.90
2023-01-27T17:01:24.407Z,17.90
2023-01-27T17:03:56.873Z,17.90
2023-01-27T17:06:28.719Z,17.90
2023-01-27T17:08:56.930Z,17.90
2023-01-27T17:11:26.984Z,17.90
2023-01-27T17:13:59.920Z,17.80
2023-01-27T17:16:30.970Z,17.80
2023-01-27T17:19:03.907Z,17.80
2023-01-27T17:21:35.658Z,17.80
2023-01-27T17:24:08.578Z,17.80
2023-01-27T17:26:37.296Z,17.80
2023-01-27T17:29:05.831Z,17.70
2023-01-27T17:31:38.518Z,17.70
2023-01-27T17:34:15.588Z,17.80
2023-01-27T17:37:07.072Z,17.70
2023-01-27T17:39:40.083Z,17.80
2023-01-27T17:42:08.795Z,17.70
2023-01-27T17:44:36.970Z,17.70
2023-01-27T17:47:07.605Z,17.70
2023-01-27T17:49:40.693Z,17.70
2023-01-27T17:52:10.578Z,17.70
2023-01-27T17:54:41.597Z,17.70
2023-01-27T17:57:14.264Z,17.70
2023-01-27T17:59:46.658Z,17.70
2023-01-27T18:02:21.146Z,17.70
2023-01-27T18:04:51.330Z,17.60
2023-01-27T18:07:19.555Z,17.60
2023-01-27T18:09:53.499Z,17.60
2023-01-27T18:12:33.970Z,17.50
2023-01-27T18:15:39.829Z,17.50
2023-01-27T18:18:19.881Z,17.50
2023-01-27T18:20:53.898Z,17.50
2023-01-27T18:23:27.584Z,17.50
2023-01-27T18:26:04.742Z,17.50
2023-01-27T18:28:36.902Z,17.40
2023-01-27T18:31:12.451Z,17.50
2023-01-27T18:33:42.933Z,17.50
2023-01-27T18:36:22.960Z,17.50
2023-01-27T18:38:52.657Z,17.40
2023-01-27T18:41:25.648Z,17.40
2023-01-27T18:43:53.914Z,17.50
2023-01-27T18:46:22.238Z,17.40
2023-01-27T18:48:50.393Z,17.40
2023-01-27T18:51:19.956Z,17.40
2023-01-27T18:53:48.349Z,17.40
2023-01-27T18:56:16.716Z,17.40
2023-01-27T18:58:44.910Z,17.40
2023-01-27T19:01:21.065Z,17.40
2023-01-27T19:03:50.875Z,17.50
2023-01-27T19:06:20.713Z,17.40
2023-01-27T19:08:52.123Z,17.40
2023-01-27T19:11:20.461Z,17.40
2023-01-27T19:13:48.731Z,17.40
2023-01-27T19:16:19.424Z,17.40
2023-01-27T19:18:47.680Z,17.40
2023-01-27T19:21:17.602Z,17.40
2023-01-27T19:23:49.488Z,17.40
2023-01-27T19:26:19.287Z,17.40
2023-01-27T19:28:50.156Z,17.40
2023-01-27T19:31:18.471Z,17.40
2023-01-27T19:33:47.556Z,17.40
2023-01-27T19:36:22.324Z,17.40
2023-01-27T19:38:56.239Z,17.40
2023-01-27T19:41:24.653Z,17.40
2023-01-27T19:43:53.389Z,17.40
2023-01-27T19:46:23.282Z,17.40
2023-01-27T19:48:52.023Z,17.40
2023-01-27T19:51:20.762Z,17.40
2023-01-27T19:53:48.968Z,17.40
2023-01-27T19:56:21.585Z,17.40
2023-01-27T19:58:52.859Z,17.40
2023-01-27T20:01:22.418Z,17.30
2023-01-27T20:03:51.254Z,17.30
2023-01-27T20:06:21.338Z,17.30
2023-01-27T20:08:52.154Z,17.30
2023-01-27T20:11:34.617Z,17.30
2023-01-27T20:14:04.172Z,17.30
2023-01-27T20:16:32.670Z,17.30
2023-01-27T20:19:01.186Z,17.30
2023-01-27T20:21:31.415Z,17.30
2023-01-27T20:24:00.075Z,17.30
2023-01-27T20:26:29.660Z,17.30
2023-01-27T20:28:59.386Z,17.30
2023-01-27T20:31:27.812Z,17.30
2023-01-27T20:33:56.003Z,17.30
2023-01-27T20:36:25.126Z,17.30
2023-01-27T20:38:53.765Z,17.30
2023-01-27T20:41:23.936Z,17.30
2023-01-27T20:43:56.964Z,17.30
2023-01-27T20:46:26.668Z,17.30
2023-01-27T20:48:54.849Z,17.30
2023-01-27T20:51:23.137Z,17.20
2023-01-27T20:53:51.364Z,17.20
2023-01-27T20:56:22.263Z,17.20
2023-01-27T20:58:51.119Z,17.20
2023-01-27T21:01:21.211Z,17.20
2023-01-27T21:03:51.959Z,17.30
2023-01-27T21:06:20.835Z,17.20
2023-01-27T21:08:50.268Z,17.20
2023-01-27T21:11:20.578Z,17.20
2023-01-27T21:13:49.889Z,17.20
2023-01-27T21:16:18.177Z,17.20
2023-01-27T21:18:46.702Z,17.20
2023-01-27T21:21:26.823Z,17.20
2023-01-27T21:23:55.288Z,17.20
2023-01-27T21:26:24.291Z,17.20
2023-01-27T21:28:52.678Z,17.20
2023-01-27T21:31:22.582Z,17.20
2023-01-27T21:33:51.576Z,17.10
2023-01-27T21:36:20.661Z,17.20
2023-01-27T21:38:53.783Z,17.10
2023-01-27T21:41:40.724Z,17.10
2023-01-27T21:44:34.764Z,17.10
2023-01-27T21:47:03.156Z,17.10
2023-01-27T21:49:31.453Z,17.10
2023-01-27T21:51:59.573Z,17.10
2023-01-27T21:54:29.600Z,17.10
2023-01-27T21:56:57.856Z,17.10
2023-01-27T21:59:26.063Z,17.10
2023-01-27T22:01:55.339Z,17.10
2023-01-27T22:04:23.615Z,17.10
2023-01-27T22:06:51.883Z,17.00
2023-01-27T22:09:20.086Z,17.10
2023-01-27T22:11:49.712Z,17.00
2023-01-27T22:14:17.908Z,17.00
2023-01-27T22:16:46.164Z,17.00
2023-01-27T22:19:14.382Z,17.00
2023-01-27T22:21:42.677Z,17.00
2023-01-27T22:24:10.976Z,17.00
2023-01-27T22:26:39.188Z,17.00
2023-01-27T22:29:08.844Z,17.00
2023-01-27T22:31:37.744Z,17.00
2023-01-27T22:34:05.920Z,17.00
2023-01-27T22:36:34.166Z,17.00
2023-01-27T22:39:02.367Z,17.00
2023-01-27T22:41:30.714Z,16.90
2023-01-27T22:43:59.172Z,16.90
2023-01-27T22:46:28.756Z,16.90
2023-01-27T22:48:56.979Z,16.90
2023-01-27T22:51:25.143Z,16.90
2023-01-27T22:53:53.292Z,16.90
2023-01-27T22:56:21.510Z,16.90
2023-01-27T22:58:49.666Z,16.90
2023-01-27T23:01:17.912Z,16.90
2023-01-27T23:03:47.591Z,16.90
2023-01-27T23:06:15.843Z,16.90
2023-01-27T23:08:44.039Z,16.90
2023-01-27T23:11:12.300Z,16.90
2023-01-27T23:13:40.490Z,16.90
2023-01-27T23:16:10.118Z,16.80
2023-01-27T23:18:38.314Z,16.90
2023-01-27T23:21:09.228Z,16.80
2023-01-27T23:23:37.924Z,16.90
2023-01-27T23:26:08.525Z,16.80
2023-01-27T23:28:38.815Z,16.80
2023-01-27T23:31:10.802Z,16.80
2023-01-27T23:33:40.607Z,16.80
2023-01-27T23:36:11.428Z,16.80
2023-01-27T23:38:39.916Z,16.80
2023-01-27T23:41:12.586Z,16.80
2023-01-27T23:43:40.845Z,16.80
2023-01-27T23:46:09.021Z,16.80
2023-01-27T23:48:37.152Z,16.80
2023-01-27T23:51:11.249Z,16.80
2023-01-27T23:53:39.394Z,16.80
2023-01-27T23:56:10.262Z,16.80
2023-01-27T23:58:38.499Z,16.70
